Time;durP1;ratioP1;P1;durP2;ratioP2;P2;SDS_P1;SDS_P2;PMS_P1;PMS_P2;Temp;Humidity;BMP_temperature;BMP_pressure;BME280_temperature;BME280_humidity;BME280_pressure;Samples;Min_cycle;Max_cycle;Signal;HPM_P1;HPM_P2
2020/12/25 00:00:08;;;;;;;3.17;2.10;;;3.80;99.90;;;;;;4379721;32;20542;-75
2020/12/25 00:02:35;;;;;;;3.07;2.10;;;3.70;99.90;;;;;;4381676;32;20166;-75
2020/12/25 00:05:02;;;;;;;2.93;2.13;;;3.70;99.90;;;;;;4366907;32;20230;-75
2020/12/25 00:07:28;;;;;;;5.03;2.43;;;3.80;99.90;;;;;;4382008;32;20136;-74
2020/12/25 00:09:55;;;;;;;3.03;2.30;;;3.70;99.90;;;;;;4379988;32;20166;-74
2020/12/25 00:12:21;;;;;;;3.23;2.30;;;3.70;99.90;;;;;;4380166;32;20175;-74
2020/12/25 00:14:48;;;;;;;4.00;2.63;;;3.70;99.90;;;;;;4381482;32;20140;-74
2020/12/25 00:17:14;;;;;;;3.40;2.40;;;3.70;99.90;;;;;;4380056;32;20160;-74
2020/12/25 00:19:40;;;;;;;3.93;2.40;;;3.70;99.90;;;;;;4379763;32;20210;-73
2020/12/25 00:22:07;;;;;;;3.20;2.37;;;3.80;99.90;;;;;;4379944;32;20203;-73
2020/12/25 00:24:33;;;;;;;3.20;2.27;;;3.80;99.90;;;;;;4379824;32;20137;-73
2020/12/25 00:27:00;;;;;;;2.30;2.00;;;3.80;99.90;;;;;;4379826;32;20136;-73
2020/12/25 00:29:26;;;;;;;3.37;2.20;;;3.80;99.90;;;;;;4379209;32;20170;-74
2020/12/25 00:31:53;;;;;;;4.27;2.30;;;3.80;99.90;;;;;;4380017;32;20140;-74
2020/12/25 00:34:19;;;;;;;2.60;2.00;;;3.90;99.90;;;;;;4379409;32;20166;-74
2020/12/25 00:36:46;;;;;;;2.33;1.90;;;4.00;99.90;;;;;;4379612;32;20140;-73
2020/12/25 00:39:14;;;;;;;2.73;2.00;;;4.00;99.90;;;;;;4379637;32;20512;-74
2020/12/25 00:41:42;;;;;;;2.40;1.67;;;4.00;99.90;;;;;;4379603;32;20186;-74
2020/12/25 00:44:09;;;;;;;2.50;1.93;;;4.00;99.90;;;;;;4381067;32;20144;-73
2020/12/25 00:46:36;;;;;;;2.67;2.00;;;4.00;99.90;;;;;;4381068;32;20190;-73
2020/12/25 00:49:03;;;;;;;6.37;2.40;;;4.00;99.90;;;;;;4379584;32;20166;-73
2020/12/25 00:51:29;;;;;;;4.30;2.10;;;3.90;99.90;;;;;;4381066;32;20200;-73
2020/12/25 00:53:56;;;;;;;3.40;2.10;;;3.90;99.90;;;;;;4379800;32;20204;-73
2020/12/25 00:56:22;;;;;;;2.53;2.03;;;3.90;99.90;;;;;;4379518;32;20143;-73
2020/12/25 00:58:49;;;;;;;6.10;2.63;;;3.90;99.90;;;;;;4379389;32;20186;-73
2020/12/25 01:01:15;;;;;;;3.77;2.60;;;4.00;99.90;;;;;;4379444;32;20175;-73
2020/12/25 01:03:44;;;;;;;5.27;3.13;;;4.00;99.90;;;;;;4379493;32;20444;-73
2020/12/25 01:06:12;;;;;;;4.10;2.80;;;4.00;99.90;;;;;;4379688;32;20140;-73
2020/12/25 01:08:39;;;;;;;4.37;3.03;;;3.90;99.90;;;;;;4379359;32;20132;-73
2020/12/25 01:11:07;;;;;;;5.07;3.20;;;4.00;99.90;;;;;;4379361;32;20140;-73
2020/12/25 01:13:34;;;;;;;5.03;3.53;;;3.90;99.90;;;;;;4380775;32;20156;-73
2020/12/25 01:16:05;;;;;;;4.80;3.30;;;3.90;99.90;;;;;;4379585;32;20140;-73
2020/12/25 01:18:32;;;;;;;4.57;3.57;;;3.80;99.90;;;;;;4379096;32;20217;-73
2020/12/25 01:20:59;;;;;;;8.67;3.70;;;3.80;99.90;;;;;;4378798;32;20462;-73
2020/12/25 01:23:26;;;;;;;5.37;3.80;;;3.80;99.90;;;;;;4379204;32;20136;-73
2020/12/25 01:25:53;;;;;;;6.63;3.63;;;3.80;99.90;;;;;;4380531;32;20148;-73
2020/12/25 01:28:19;;;;;;;6.00;3.73;;;3.80;99.90;;;;;;4379142;32;20137;-73
2020/12/25 01:30:46;;;;;;;5.17;3.37;;;3.80;99.90;;;;;;4380565;32;20396;-73
2020/12/25 01:33:12;;;;;;;4.77;3.37;;;3.80;99.90;;;;;;4379121;32;20143;-73
2020/12/25 01:35:39;;;;;;;4.60;3.67;;;3.70;99.90;;;;;;4378944;32;20154;-73
2020/12/25 01:38:06;;;;;;;5.60;3.60;;;3.70;99.90;;;;;;4379402;32;20155;-73
2020/12/25 01:40:33;;;;;;;4.90;3.67;;;3.80;99.90;;;;;;4379010;32;20140;-73
2020/12/25 01:42:59;;;;;;;6.90;4.20;;;3.80;99.90;;;;;;4380471;32;20148;-74
2020/12/25 01:45:26;;;;;;;5.03;3.40;;;3.70;99.90;;;;;;4378755;32;20140;-74
2020/12/25 01:47:55;;;;;;;5.47;3.80;;;3.70;99.90;;;;;;4380476;32;20139;-74
2020/12/25 01:50:27;;;;;;;5.50;3.60;;;3.70;99.90;;;;;;4380475;32;20532;-73
2020/12/25 01:52:55;;;;;;;5.23;3.60;;;3.70;99.90;;;;;;4378881;32;20140;-73
2020/12/25 01:55:24;;;;;;;5.47;4.00;;;3.70;99.90;;;;;;4378997;32;20202;-73
2020/12/25 01:57:54;;;;;;;6.47;4.13;;;3.70;99.90;;;;;;4378713;32;20139;-74
2020/12/25 02:00:22;;;;;;;5.80;4.10;;;3.70;99.90;;;;;;4378839;32;20140;-74
2020/12/25 02:02:48;;;;;;;5.40;4.10;;;3.70;99.90;;;;;;4380344;32;20533;-73
2020/12/25 02:05:15;;;;;;;6.23;4.43;;;3.70;99.90;;;;;;4378910;32;20201;-74
2020/12/25 02:07:43;;;;;;;6.90;4.50;;;3.60;99.90;;;;;;4380318;32;20576;-74
2020/12/25 02:10:13;;;;;;;5.80;4.47;;;3.60;99.90;;;;;;4378731;32;20148;-74
2020/12/25 02:12:40;;;;;;;6.10;4.47;;;3.60;99.90;;;;;;4380227;32;20263;-73
2020/12/25 02:15:07;;;;;;;7.33;4.37;;;3.60;99.90;;;;;;4378821;32;20144;-73
2020/12/25 02:17:34;;;;;;;5.90;4.20;;;3.70;99.90;;;;;;4378269;32;20155;-73
2020/12/25 02:20:03;;;;;;;6.90;4.17;;;3.60;99.90;;;;;;4379976;32;20167;-73
2020/12/25 02:22:30;;;;;;;8.30;4.33;;;3.70;99.90;;;;;;4379658;32;20199;-74
2020/12/25 02:24:56;;;;;;;5.90;4.20;;;3.70;99.90;;;;;;4378619;32;20212;-74
2020/12/25 02:27:23;;;;;;;7.23;4.17;;;3.60;99.90;;;;;;4378743;32;20159;-74
2020/12/25 02:29:49;;;;;;;6.70;4.20;;;3.60;99.90;;;;;;4379916;32;20137;-74
2020/12/25 02:32:16;;;;;;;5.20;4.13;;;3.60;99.90;;;;;;4380539;32;20194;-74
2020/12/25 02:34:43;;;;;;;6.57;3.80;;;3.60;99.90;;;;;;4382978;32;20172;-74
2020/12/25 02:37:10;;;;;;;5.17;3.70;;;3.60;99.90;;;;;;4381373;32;20178;-74
2020/12/25 02:39:37;;;;;;;5.63;3.77;;;3.60;99.90;;;;;;4380850;32;20428;-74
2020/12/25 02:42:03;;;;;;;6.03;3.70;;;3.60;99.90;;;;;;4382876;32;20459;-74
2020/12/25 02:44:29;;;;;;;5.13;3.80;;;3.70;99.90;;;;;;4381352;32;20155;-74
2020/12/25 02:46:56;;;;;;;4.83;3.50;;;3.70;99.90;;;;;;4381628;32;20154;-74
2020/12/25 02:49:22;;;;;;;6.93;4.00;;;3.70;99.90;;;;;;4380821;32;20147;-74
2020/12/25 02:51:49;;;;;;;5.53;3.63;;;3.70;99.90;;;;;;4381040;32;20140;-74
2020/12/25 02:54:15;;;;;;;4.97;3.67;;;3.70;99.90;;;;;;4381299;32;20159;-74
2020/12/25 02:56:41;;;;;;;5.77;3.80;;;3.80;99.90;;;;;;4382956;32;20186;-74
2020/12/25 02:59:08;;;;;;;5.13;3.57;;;3.70;99.90;;;;;;4379988;32;20251;-74
2020/12/25 03:01:34;;;;;;;6.50;3.57;;;3.70;99.90;;;;;;4381090;32;20136;-73
2020/12/25 03:04:01;;;;;;;5.20;3.80;;;3.70;99.90;;;;;;4381409;32;20140;-73
2020/12/25 03:06:27;;;;;;;7.90;3.97;;;3.70;99.90;;;;;;4367629;32;20144;-73
2020/12/25 03:08:53;;;;;;;5.87;4.10;;;3.80;99.90;;;;;;4381189;32;20135;-74
2020/12/25 03:11:20;;;;;;;7.17;3.90;;;3.70;99.90;;;;;;4381000;32;20159;-73
2020/12/25 03:13:46;;;;;;;6.53;3.83;;;3.70;99.90;;;;;;4381485;32;20205;-74
2020/12/25 03:16:13;;;;;;;6.30;3.80;;;3.80;99.90;;;;;;4381000;32;20141;-73
2020/12/25 03:18:39;;;;;;;5.23;3.50;;;3.80;99.90;;;;;;4380985;32;20178;-73
2020/12/25 03:21:06;;;;;;;5.10;3.50;;;3.80;99.90;;;;;;4380894;32;20243;-73
2020/12/25 03:23:33;;;;;;;5.00;3.83;;;3.80;99.90;;;;;;4381358;32;20490;-73
2020/12/25 03:25:59;;;;;;;5.00;3.50;;;3.80;99.90;;;;;;4380759;32;20136;-72
2020/12/25 03:28:25;;;;;;;6.93;3.50;;;3.80;99.90;;;;;;4381161;32;20435;-72
2020/12/25 03:30:52;;;;;;;5.10;3.37;;;3.80;99.90;;;;;;4380219;32;20191;-73
2020/12/25 03:33:18;;;;;;;5.83;3.60;;;3.80;99.90;;;;;;4380824;32;20148;-72
2020/12/25 03:35:50;;;;;;;6.50;4.03;;;3.70;99.90;;;;;;4380629;32;20143;-73
2020/12/25 03:38:17;;;;;;;5.77;3.73;;;3.80;99.90;;;;;;4381887;32;20214;-73
2020/12/25 03:40:44;;;;;;;5.00;3.40;;;3.80;99.90;;;;;;4380568;32;20168;-73
2020/12/25 03:43:10;;;;;;;5.30;3.63;;;3.90;99.90;;;;;;4380439;32;20163;-73
2020/12/25 03:45:37;;;;;;;5.67;3.80;;;3.90;99.90;;;;;;4380147;32;20131;-73
2020/12/25 03:48:03;;;;;;;6.37;3.43;;;4.00;99.90;;;;;;4382019;32;20144;-73
2020/12/25 03:50:30;;;;;;;5.90;3.90;;;3.90;99.90;;;;;;4380486;32;20203;-73
2020/12/25 03:52:56;;;;;;;6.47;3.70;;;3.80;99.90;;;;;;4380564;32;20136;-73
2020/12/25 03:55:23;;;;;;;5.40;3.93;;;3.90;99.90;;;;;;4381854;32;20420;-73
2020/12/25 03:57:50;;;;;;;5.70;3.60;;;3.80;99.90;;;;;;4380545;32;20140;-73
2020/12/25 04:00:17;;;;;;;5.60;3.60;;;3.80;99.90;;;;;;4380357;32;20219;-73
2020/12/25 04:02:44;;;;;;;5.37;3.57;;;3.90;99.90;;;;;;4380007;32;20144;-73
2020/12/25 04:05:11;;;;;;;5.57;3.60;;;3.90;99.90;;;;;;4380198;32;20162;-73
2020/12/25 04:07:38;;;;;;;5.00;3.43;;;3.90;99.90;;;;;;4380113;32;20451;-73
2020/12/25 04:10:04;;;;;;;5.23;3.43;;;4.00;99.90;;;;;;4380015;32;20489;-73
2020/12/25 04:12:30;;;;;;;5.20;3.30;;;4.00;99.90;;;;;;4379966;32;20156;-73
2020/12/25 04:14:57;;;;;;;5.73;3.77;;;4.10;99.90;;;;;;4380260;32;20207;-73
2020/12/25 04:17:23;;;;;;;4.57;3.47;;;4.10;99.90;;;;;;4381160;32;20156;-73
2020/12/25 04:19:50;;;;;;;4.60;3.40;;;4.10;99.90;;;;;;4379792;32;20183;-73
2020/12/25 04:22:16;;;;;;;6.13;3.33;;;4.20;99.90;;;;;;4379762;32;20167;-73
2020/12/25 04:24:43;;;;;;;5.30;3.50;;;4.10;99.90;;;;;;4379963;32;20171;-73
2020/12/25 04:27:10;;;;;;;5.47;3.53;;;4.00;99.90;;;;;;4379797;32;20162;-73
2020/12/25 04:29:37;;;;;;;5.40;3.43;;;4.00;99.90;;;;;;4379776;32;20144;-73
2020/12/25 04:32:03;;;;;;;5.50;3.33;;;3.90;99.90;;;;;;4379774;32;20140;-73
2020/12/25 04:34:30;;;;;;;4.20;3.43;;;3.90;99.90;;;;;;4379779;32;20202;-73
2020/12/25 04:36:56;;;;;;;4.23;3.23;;;3.90;99.90;;;;;;4381203;32;20509;-73
2020/12/25 04:39:23;;;;;;;5.33;3.27;;;3.90;99.90;;;;;;4379720;32;20140;-73
2020/12/25 04:41:49;;;;;;;5.27;3.60;;;3.90;99.90;;;;;;4379673;32;20212;-73
2020/12/25 04:44:15;;;;;;;4.73;3.50;;;3.90;99.90;;;;;;4381063;32;20205;-73
2020/12/25 04:46:42;;;;;;;4.37;3.60;;;3.90;99.90;;;;;;4379730;32;20244;-73
2020/12/25 04:49:09;;;;;;;5.00;3.70;;;4.00;99.90;;;;;;4380579;32;20199;-73
2020/12/25 04:51:36;;;;;;;5.50;3.27;;;4.00;99.90;;;;;;4379834;32;20148;-73
2020/12/25 04:54:02;;;;;;;5.53;3.47;;;3.90;99.90;;;;;;4379526;32;20168;-73
2020/12/25 04:56:29;;;;;;;5.83;4.13;;;3.90;99.90;;;;;;4379790;32;20132;-73
2020/12/25 04:58:55;;;;;;;6.60;4.30;;;3.90;99.90;;;;;;4379477;32;20148;-73
2020/12/25 05:01:22;;;;;;;5.77;4.40;;;3.90;99.90;;;;;;4380492;32;20198;-73
2020/12/25 05:03:48;;;;;;;5.97;4.10;;;3.80;99.90;;;;;;4379442;32;20211;-73
2020/12/25 05:06:19;;;;;;;5.73;4.57;;;3.80;99.90;;;;;;4380693;32;20143;-73
2020/12/25 05:08:50;;;;;;;6.73;4.63;;;3.80;99.90;;;;;;4380843;32;20478;-74
2020/12/25 05:11:18;;;;;;;6.00;4.53;;;3.80;99.90;;;;;;4379234;32;20199;-73
2020/12/25 05:13:53;;;;;;;6.00;4.73;;;3.80;99.90;;;;;;4379316;32;20144;-73
2020/12/25 05:16:21;;;;;;;6.67;4.70;;;3.80;99.90;;;;;;4379293;32;20139;-73
2020/12/25 05:18:52;;;;;;;5.77;4.53;;;3.80;99.90;;;;;;4379044;32;20155;-74
2020/12/25 05:21:20;;;;;;;8.07;4.63;;;3.80;99.90;;;;;;4379266;32;20151;-74
2020/12/25 05:23:49;;;;;;;6.17;4.90;;;3.80;99.90;;;;;;4379702;32;20394;-73
2020/12/25 05:26:16;;;;;;;7.10;5.63;;;3.80;99.90;;;;;;4379165;32;20167;-74
2020/12/25 05:28:45;;;;;;;6.70;5.30;;;3.80;99.90;;;;;;4379154;32;20210;-73
2020/12/25 05:31:14;;;;;;;6.60;5.30;;;3.90;99.90;;;;;;4379200;32;20517;-74
2020/12/25 05:33:40;;;;;;;7.60;5.20;;;3.90;99.90;;;;;;4379056;32;20207;-74
2020/12/25 05:36:12;;;;;;;8.90;4.80;;;3.80;99.90;;;;;;4380532;32;20155;-74
2020/12/25 05:38:40;;;;;;;6.63;5.07;;;3.90;99.90;;;;;;4379153;32;20198;-73
2020/12/25 05:41:08;;;;;;;7.23;5.30;;;3.80;99.90;;;;;;4379020;32;20144;-73
2020/12/25 05:43:34;;;;;;;7.77;5.20;;;3.80;99.90;;;;;;4378546;32;20463;-73
2020/12/25 05:46:01;;;;;;;7.83;5.67;;;3.80;99.90;;;;;;4378957;32;20140;-73
2020/12/25 05:48:27;;;;;;;8.07;5.07;;;3.80;99.90;;;;;;4379022;32;20161;-73
2020/12/25 05:50:54;;;;;;;7.33;4.90;;;3.80;99.90;;;;;;4379022;32;20170;-73
2020/12/25 05:53:20;;;;;;;7.00;5.07;;;3.80;99.90;;;;;;4378839;32;20484;-73
2020/12/25 05:55:47;;;;;;;8.23;5.30;;;3.80;99.90;;;;;;4379859;32;20140;-74
2020/12/25 05:58:15;;;;;;;7.63;4.93;;;3.80;99.90;;;;;;4378910;32;20163;-74
2020/12/25 06:00:43;;;;;;;6.17;4.77;;;3.80;99.90;;;;;;4378847;32;20185;-73
2020/12/25 06:03:15;;;;;;;6.90;4.63;;;3.80;99.90;;;;;;4378805;32;20166;-73
2020/12/25 06:05:45;;;;;;;6.20;4.47;;;3.80;99.90;;;;;;4379319;32;20175;-74
2020/12/25 06:08:17;;;;;;;6.73;4.20;;;3.80;99.90;;;;;;4381948;32;20212;-74
2020/12/25 06:10:46;;;;;;;5.97;4.23;;;3.80;99.90;;;;;;4381931;32;20167;-74
2020/12/25 06:13:14;;;;;;;5.73;3.90;;;3.80;99.90;;;;;;4381837;32;20458;-73
2020/12/25 06:15:53;;;;;;;6.67;4.37;;;3.80;99.90;;;;;;4381813;32;20448;-74
2020/12/25 06:18:48;;;;;;;5.60;4.13;;;3.80;99.90;;;;;;4382519;32;20440;-73
2020/12/25 06:21:19;;;;;;;4.43;3.63;;;3.80;99.90;;;;;;4383150;32;20240;-74
2020/12/25 06:23:46;;;;;;;5.83;3.90;;;3.80;99.90;;;;;;4383094;32;20209;-74
2020/12/25 06:26:18;;;;;;;5.70;3.50;;;3.80;99.90;;;;;;4381662;32;20188;-73
2020/12/25 06:28:48;;;;;;;4.33;3.33;;;3.80;99.90;;;;;;4382810;32;20183;-73
2020/12/25 06:31:34;;;;;;;5.53;4.10;;;3.80;99.90;;;;;;4382936;32;20162;-73
2020/12/25 06:34:02;;;;;;;5.43;4.13;;;3.80;99.90;;;;;;4381845;32;20162;-73
2020/12/25 06:36:30;;;;;;;5.93;4.00;;;3.70;99.90;;;;;;4382442;32;20143;-73
2020/12/25 06:38:58;;;;;;;4.60;3.90;;;3.70;99.90;;;;;;4381330;32;20156;-73
2020/12/25 06:41:28;;;;;;;4.83;3.50;;;3.70;99.90;;;;;;4381288;32;20210;-72
2020/12/25 06:43:55;;;;;;;6.90;4.00;;;3.70;99.90;;;;;;4381302;32;20139;-73
2020/12/25 06:46:34;;;;;;;5.00;3.33;;;3.80;99.90;;;;;;4381608;32;20182;-74
2020/12/25 06:49:06;;;;;;;6.60;4.07;;;3.80;99.90;;;;;;4382782;32;20215;-73
2020/12/25 06:51:44;;;;;;;5.50;3.97;;;3.80;99.90;;;;;;4381383;32;20136;-73
2020/12/25 06:54:21;;;;;;;5.73;3.90;;;3.80;99.90;;;;;;4382651;32;20469;-74
2020/12/25 06:56:51;;;;;;;4.17;3.57;;;3.70;99.90;;;;;;4381158;32;20451;-73
2020/12/25 06:59:19;;;;;;;4.83;3.30;;;3.70;99.90;;;;;;4381141;32;20462;-73
2020/12/25 07:01:47;;;;;;;4.37;3.30;;;3.70;99.90;;;;;;4381199;32;20183;-73
2020/12/25 07:04:30;;;;;;;5.13;3.60;;;3.60;99.90;;;;;;4381081;32;20497;-73
2020/12/25 07:07:04;;;;;;;6.37;3.30;;;3.60;99.90;;;;;;4382596;32;20163;-73
2020/12/25 07:09:41;;;;;;;3.23;2.83;;;3.60;99.90;;;;;;4381833;32;20144;-73
2020/12/25 07:12:14;;;;;;;4.73;3.00;;;3.60;99.90;;;;;;4381071;32;20207;-73
2020/12/25 07:14:41;;;;;;;8.13;3.10;;;3.60;99.90;;;;;;4379657;32;20230;-73
2020/12/25 07:17:07;;;;;;;4.00;2.97;;;3.60;99.90;;;;;;4380966;32;20224;-73
2020/12/25 07:19:35;;;;;;;5.90;2.70;;;3.60;99.90;;;;;;4380064;32;20409;-73
2020/12/25 07:22:03;;;;;;;3.70;2.60;;;3.60;99.90;;;;;;4380739;32;20159;-73
2020/12/25 07:24:30;;;;;;;3.73;2.80;;;3.70;99.90;;;;;;4380656;32;20486;-73
2020/12/25 07:26:56;;;;;;;5.10;2.90;;;3.60;99.90;;;;;;4382165;32;20171;-73
2020/12/25 07:29:24;;;;;;;3.10;2.27;;;3.60;99.90;;;;;;4381649;32;20159;-73
2020/12/25 07:31:52;;;;;;;4.97;2.40;;;3.70;99.90;;;;;;4380651;32;20207;-73
2020/12/25 07:34:21;;;;;;;3.30;2.27;;;3.70;99.90;;;;;;4381745;32;20577;-73
2020/12/25 07:36:49;;;;;;;3.07;2.17;;;3.70;99.90;;;;;;4380468;32;20140;-73
2020/12/25 07:39:16;;;;;;;2.97;2.20;;;3.70;99.90;;;;;;4380495;32;20153;-73
2020/12/25 07:41:43;;;;;;;5.70;2.00;;;3.70;99.90;;;;;;4382035;32;20528;-72
2020/12/25 07:44:09;;;;;;;4.13;2.07;;;3.70;99.90;;;;;;4381387;32;20203;-73
2020/12/25 07:46:38;;;;;;;3.27;2.20;;;3.70;99.90;;;;;;4380214;32;20159;-73
2020/12/25 07:49:06;;;;;;;6.00;2.63;;;3.70;99.90;;;;;;4380948;32;20144;-73
2020/12/25 07:51:33;;;;;;;3.47;2.00;;;3.60;99.90;;;;;;4380268;32;20180;-72
2020/12/25 07:54:01;;;;;;;3.50;1.90;;;3.60;99.90;;;;;;4380187;32;20148;-72
2020/12/25 07:56:35;;;;;;;3.63;2.00;;;3.60;99.90;;;;;;4380028;32;20164;-72
2020/12/25 07:59:04;;;;;;;3.40;1.90;;;3.60;99.90;;;;;;4380268;32;20269;-72
2020/12/25 08:01:32;;;;;;;3.07;2.17;;;3.70;99.90;;;;;;4380749;32;20144;-73
2020/12/25 08:04:00;;;;;;;4.10;1.90;;;3.70;99.90;;;;;;4380062;32;20235;-73
2020/12/25 08:06:29;;;;;;;3.73;1.90;;;3.80;99.90;;;;;;4380156;32;20231;-73
2020/12/25 08:09:14;;;;;;;2.13;1.47;;;3.70;99.90;;;;;;4380064;32;20158;-73
2020/12/25 08:11:41;;;;;;;2.83;1.80;;;3.70;99.90;;;;;;4381429;32;20140;-73
2020/12/25 08:14:09;;;;;;;3.17;1.57;;;3.70;99.90;;;;;;4380024;32;20167;-73
2020/12/25 08:16:42;;;;;;;2.33;1.60;;;3.70;99.90;;;;;;4380017;32;20366;-73
2020/12/25 08:19:09;;;;;;;3.43;1.70;;;3.80;99.90;;;;;;4380039;32;20223;-73
2020/12/25 08:21:38;;;;;;;1.97;1.47;;;3.80;99.90;;;;;;4381602;32;20144;-73
2020/12/25 08:24:06;;;;;;;2.20;1.40;;;4.00;99.90;;;;;;4380008;32;20136;-73
2020/12/25 08:26:35;;;;;;;2.40;1.57;;;3.90;99.90;;;;;;4379771;32;20251;-73
2020/12/25 08:29:02;;;;;;;2.03;1.57;;;3.80;99.90;;;;;;4379556;32;20344;-73
2020/12/25 08:31:39;;;;;;;3.67;2.30;;;3.70;99.90;;;;;;4379590;32;20162;-73
2020/12/25 08:34:06;;;;;;;2.90;1.60;;;3.70;99.90;;;;;;4380152;32;20165;-73
2020/12/25 08:36:33;;;;;;;2.63;1.60;;;3.60;99.90;;;;;;4379753;32;20199;-73
2020/12/25 08:39:07;;;;;;;2.83;1.70;;;3.70;99.90;;;;;;4381336;32;20178;-73
2020/12/25 08:41:34;;;;;;;3.40;1.67;;;3.60;99.90;;;;;;4379653;32;20442;-73
2020/12/25 08:44:10;;;;;;;2.60;1.73;;;3.60;99.90;;;;;;4379500;32;20143;-73
2020/12/25 08:46:37;;;;;;;3.07;1.80;;;3.60;99.90;;;;;;4379293;32;20239;-74
2020/12/25 08:49:04;;;;;;;2.47;1.60;;;3.60;99.90;;;;;;4379559;32;20187;-73
2020/12/25 08:51:35;;;;;;;2.30;1.70;;;3.60;99.90;;;;;;4379749;32;20485;-73
2020/12/25 08:54:02;;;;;;;2.17;1.50;;;3.60;99.90;;;;;;4379392;32;20143;-73
2020/12/25 08:56:28;;;;;;;2.33;1.73;;;3.60;99.90;;;;;;4366115;32;20219;-73
2020/12/25 08:59:04;;;;;;;2.27;1.67;;;3.70;99.90;;;;;;4379206;32;20409;-74
2020/12/25 09:01:32;;;;;;;4.37;2.10;;;3.80;99.90;;;;;;4379293;32;20200;-73
2020/12/25 09:03:59;;;;;;;2.30;1.87;;;3.90;99.90;;;;;;4379345;32;20160;-73
2020/12/25 09:06:27;;;;;;;2.17;1.50;;;3.90;99.90;;;;;;4364895;32;20447;-72
2020/12/25 09:08:54;;;;;;;2.50;1.57;;;3.80;99.90;;;;;;4379930;32;20148;-73
2020/12/25 09:11:23;;;;;;;3.73;1.83;;;3.80;99.90;;;;;;4379807;32;20223;-73
2020/12/25 09:13:51;;;;;;;2.90;1.93;;;3.70;99.90;;;;;;4379073;32;20143;-73
2020/12/25 09:16:18;;;;;;;2.13;1.53;;;3.70;99.90;;;;;;4378603;32;20163;-73
2020/12/25 09:18:45;;;;;;;2.20;1.77;;;3.80;99.90;;;;;;4378605;32;20160;-73
2020/12/25 09:21:13;;;;;;;2.27;1.60;;;3.70;99.90;;;;;;4378981;32;20533;-73
2020/12/25 09:23:40;;;;;;;1.40;1.30;;;3.80;99.90;;;;;;4379516;32;20140;-72
2020/12/25 09:26:09;;;;;;;2.00;1.30;;;3.80;99.90;;;;;;4379304;32;20203;-73
2020/12/25 09:28:37;;;;;;;2.13;1.50;;;3.90;99.90;;;;;;4379134;32;20167;-73
2020/12/25 09:31:05;;;;;;;2.00;1.63;;;3.90;99.90;;;;;;4380704;32;20197;-73
2020/12/25 09:33:31;;;;;;;2.07;1.60;;;4.00;99.90;;;;;;4378897;32;20149;-73
2020/12/25 09:35:58;;;;;;;2.40;1.50;;;4.10;99.90;;;;;;4378812;32;20246;-74
2020/12/25 09:38:25;;;;;;;1.90;1.30;;;4.20;99.90;;;;;;4378851;32;20140;-73
2020/12/25 09:40:52;;;;;;;2.17;1.57;;;4.20;99.90;;;;;;4380150;32;20222;-74
2020/12/25 09:43:19;;;;;;;2.43;1.73;;;4.10;99.90;;;;;;4378492;32;20193;-73
2020/12/25 09:45:46;;;;;;;1.97;1.70;;;4.20;99.90;;;;;;4379211;32;20165;-73
2020/12/25 09:48:12;;;;;;;2.63;2.10;;;4.00;99.90;;;;;;4378834;32;20172;-73
2020/12/25 09:50:41;;;;;;;3.07;1.77;;;4.00;99.90;;;;;;4379070;32;20190;-73
2020/12/25 09:53:07;;;;;;;4.10;1.97;;;3.90;99.90;;;;;;4378619;32;20136;-73
2020/12/25 09:55:39;;;;;;;5.37;2.10;;;3.90;99.90;;;;;;4378416;32;20144;-74
2020/12/25 09:58:07;;;;;;;2.70;1.90;;;3.80;99.90;;;;;;4378895;32;20394;-74
2020/12/25 10:00:34;;;;;;;3.40;2.20;;;3.90;99.90;;;;;;4378626;32;20493;-72
2020/12/25 10:03:01;;;;;;;3.93;2.60;;;3.80;99.90;;;;;;4379526;32;20159;-73
2020/12/25 10:05:28;;;;;;;3.93;2.70;;;3.70;99.90;;;;;;4378624;32;20136;-73
2020/12/25 10:07:54;;;;;;;4.93;2.83;;;3.80;99.90;;;;;;4376981;32;20440;-74
2020/12/25 10:10:23;;;;;;;3.90;2.60;;;3.80;99.90;;;;;;4378613;32;20141;-73
2020/12/25 10:12:51;;;;;;;3.80;2.70;;;3.80;99.90;;;;;;4379421;32;20170;-73
2020/12/25 10:15:22;;;;;;;5.50;2.90;;;3.70;99.90;;;;;;4378621;32;20171;-74
2020/12/25 10:17:48;;;;;;;4.30;2.60;;;3.70;99.90;;;;;;4378219;32;20434;-74
2020/12/25 10:20:15;;;;;;;3.63;2.63;;;3.60;99.90;;;;;;4380073;32;20156;-73
2020/12/25 10:22:42;;;;;;;3.63;2.80;;;3.50;99.90;;;;;;4378630;32;20209;-73
2020/12/25 10:25:09;;;;;;;4.23;2.50;;;3.50;99.90;;;;;;4378653;32;20148;-73
2020/12/25 10:27:41;;;;;;;3.63;2.60;;;3.50;99.90;;;;;;4378462;32;20171;-73
2020/12/25 10:30:09;;;;;;;3.87;2.90;;;3.40;99.90;;;;;;4380011;32;20152;-73
2020/12/25 10:32:41;;;;;;;4.17;2.57;;;3.30;99.90;;;;;;4378512;32;20139;-73
2020/12/25 10:35:08;;;;;;;5.23;2.87;;;3.30;99.90;;;;;;4379982;32;20179;-73
2020/12/25 10:37:38;;;;;;;4.67;2.80;;;3.40;99.90;;;;;;4378479;32;20202;-73
2020/12/25 10:40:25;;;;;;;3.40;2.50;;;3.30;99.90;;;;;;4378207;32;20152;-73
2020/12/25 10:42:51;;;;;;;4.47;2.77;;;3.30;99.90;;;;;;4378943;32;20159;-73
2020/12/25 10:45:17;;;;;;;4.50;2.50;;;3.30;99.90;;;;;;4372432;32;20199;-73
2020/12/25 10:47:44;;;;;;;4.37;2.90;;;3.40;99.90;;;;;;4379478;32;20223;-74
2020/12/25 10:50:10;;;;;;;3.43;2.70;;;3.30;99.90;;;;;;4378342;32;20148;-72
2020/12/25 10:52:37;;;;;;;5.13;2.70;;;3.30;99.90;;;;;;4378415;32;20136;-73
2020/12/25 10:55:03;;;;;;;3.77;2.73;;;3.40;99.90;;;;;;4379992;32;20144;-74
2020/12/25 10:57:30;;;;;;;3.57;2.70;;;3.50;99.90;;;;;;4381123;32;20170;-73
2020/12/25 10:59:56;;;;;;;4.40;2.80;;;3.50;99.90;;;;;;4380721;32;20208;-73
2020/12/25 11:02:23;;;;;;;4.87;2.70;;;3.50;99.90;;;;;;4381376;32;20456;-74
2020/12/25 11:04:49;;;;;;;4.00;2.87;;;3.40;99.90;;;;;;4381172;32;20190;-73
2020/12/25 11:07:16;;;;;;;4.53;2.90;;;3.50;99.90;;;;;;4380932;32;20421;-73
2020/12/25 11:09:42;;;;;;;4.57;2.73;;;3.50;99.90;;;;;;4380745;32;20202;-73
2020/12/25 11:12:09;;;;;;;5.90;2.73;;;3.60;99.90;;;;;;4380769;32;20447;-74
2020/12/25 11:14:35;;;;;;;4.13;2.83;;;3.60;99.90;;;;;;4381168;32;20413;-74
2020/12/25 11:17:01;;;;;;;4.33;2.57;;;3.50;99.90;;;;;;4380755;32;20160;-73
2020/12/25 11:19:28;;;;;;;6.43;2.90;;;3.40;99.90;;;;;;4382062;32;20251;-73
2020/12/25 11:21:54;;;;;;;5.30;2.50;;;3.40;99.90;;;;;;4380897;32;20140;-74
2020/12/25 11:24:21;;;;;;;4.87;3.00;;;3.50;99.90;;;;;;4380730;32;20140;-75
2020/12/25 11:26:47;;;;;;;4.80;2.97;;;3.40;99.90;;;;;;4380764;32;20211;-75
2020/12/25 11:29:13;;;;;;;4.70;2.83;;;3.40;99.90;;;;;;4381000;32;20182;-75
2020/12/25 11:31:40;;;;;;;5.27;2.47;;;3.50;99.90;;;;;;4380647;32;20428;-74
2020/12/25 11:34:07;;;;;;;5.07;2.73;;;3.60;99.90;;;;;;4380590;32;20136;-74
2020/12/25 11:36:34;;;;;;;3.63;2.63;;;3.60;99.90;;;;;;4380536;32;20176;-74
2020/12/25 11:39:03;;;;;;;3.17;2.37;;;3.70;99.90;;;;;;4380366;32;20237;-74
2020/12/25 11:41:30;;;;;;;2.63;2.13;;;3.70;99.90;;;;;;4380424;32;20131;-74
2020/12/25 11:43:57;;;;;;;4.17;2.33;;;3.60;99.90;;;;;;4380754;32;20152;-74
2020/12/25 11:46:24;;;;;;;4.37;2.43;;;3.60;99.90;;;;;;4380524;32;20148;-74
2020/12/25 11:48:51;;;;;;;4.00;2.43;;;3.70;99.90;;;;;;4381843;32;20171;-74
2020/12/25 11:51:24;;;;;;;4.53;2.40;;;3.60;99.90;;;;;;4380319;32;20167;-75
2020/12/25 11:53:51;;;;;;;4.43;2.50;;;3.60;99.90;;;;;;4380282;32;20186;-74
2020/12/25 11:56:20;;;;;;;4.40;2.47;;;3.70;99.90;;;;;;4380256;32;20148;-74
2020/12/25 11:58:47;;;;;;;4.33;2.47;;;3.70;99.90;;;;;;4380107;32;20214;-74
2020/12/25 12:01:14;;;;;;;4.23;2.10;;;3.70;99.90;;;;;;4379978;32;20537;-73
2020/12/25 12:03:40;;;;;;;3.80;2.27;;;3.70;99.90;;;;;;4380088;32;20148;-74
2020/12/25 12:06:09;;;;;;;3.77;2.40;;;3.70;99.90;;;;;;4379788;32;20174;-73
2020/12/25 12:08:37;;;;;;;3.53;2.47;;;3.70;99.90;;;;;;4381426;32;20145;-73
2020/12/25 12:11:04;;;;;;;5.03;2.60;;;3.70;99.90;;;;;;4380493;32;20189;-73
2020/12/25 12:13:33;;;;;;;4.27;2.60;;;3.70;99.90;;;;;;4379995;32;20175;-73
2020/12/25 12:16:00;;;;;;;3.47;2.63;;;3.80;99.90;;;;;;4379984;32;20467;-73
2020/12/25 12:18:27;;;;;;;4.60;2.60;;;3.80;99.90;;;;;;4379491;32;20160;-73
2020/12/25 12:20:53;;;;;;;4.47;2.70;;;3.70;99.90;;;;;;4379950;32;20202;-73
2020/12/25 12:23:20;;;;;;;5.13;2.70;;;3.70;99.90;;;;;;4380481;32;20446;-73
2020/12/25 12:25:46;;;;;;;6.10;3.10;;;3.70;99.90;;;;;;4379659;32;20239;-74
2020/12/25 12:28:13;;;;;;;4.80;2.80;;;3.80;99.90;;;;;;4379678;32;20191;-74
2020/12/25 12:30:39;;;;;;;5.27;2.80;;;3.80;99.90;;;;;;4379692;32;20139;-74
2020/12/25 12:33:06;;;;;;;4.47;2.67;;;3.80;99.90;;;;;;4380096;32;20194;-74
2020/12/25 12:35:33;;;;;;;5.70;3.63;;;3.80;99.90;;;;;;4379725;32;20171;-74
2020/12/25 12:37:59;;;;;;;4.90;3.23;;;3.80;99.90;;;;;;4379541;32;20501;-73
2020/12/25 12:40:25;;;;;;;5.27;3.00;;;3.70;99.90;;;;;;4380100;32;20228;-73
2020/12/25 12:42:52;;;;;;;6.57;3.20;;;3.70;99.90;;;;;;4379684;32;20132;-73
2020/12/25 12:45:18;;;;;;;5.63;3.30;;;3.60;99.90;;;;;;4379573;32;20429;-73
2020/12/25 12:47:45;;;;;;;6.37;3.40;;;3.60;99.90;;;;;;4379445;32;20166;-74
2020/12/25 12:50:11;;;;;;;4.57;2.83;;;3.70;99.90;;;;;;4379986;32;20211;-74
2020/12/25 12:52:38;;;;;;;5.43;2.80;;;3.70;99.90;;;;;;4378956;32;20190;-73
2020/12/25 12:55:05;;;;;;;6.27;3.20;;;3.60;99.90;;;;;;4379481;32;20466;-74
2020/12/25 12:57:31;;;;;;;4.93;3.03;;;3.60;99.90;;;;;;4379506;32;20171;-74
2020/12/25 12:59:58;;;;;;;6.40;3.10;;;3.60;99.90;;;;;;4379163;32;20231;-74